Time;durP1;ratioP1;P1;durP2;ratioP2;P2;SDS_P1;SDS_P2;PMS_P1;PMS_P2;Temp;Humidity;BMP_temperature;BMP_pressure;BME280_temperature;BME280_humidity;BME280_pressure;Samples;Min_cycle;Max_cycle;Signal;HPM_P1;HPM_P2
2021/12/26 00:00:25;;;;;;;21.33;17.87;;;;;;;9.12;56.57;94128.09;5088753;28;20423;-76
2021/12/26 00:02:51;;;;;;;21.30;14.87;;;;;;;8.79;57.89;94135.84;5051737;28;20455;-77
2021/12/26 00:05:19;;;;;;;38.80;22.47;;;;;;;8.58;57.55;94137.56;5061319;28;20466;-75
2021/12/26 00:07:45;;;;;;;35.60;20.23;;;;;;;8.70;57.42;94134.41;5049576;28;20445;-77
2021/12/26 00:10:13;;;;;;;20.57;15.57;;;;;;;8.36;59.19;94136.84;5042554;28;20436;-77
2021/12/26 00:12:38;;;;;;;27.20;18.17;;;;;;;8.90;57.77;94134.50;5057014;28;20495;-77
2021/12/26 00:15:05;;;;;;;24.13;18.80;;;;;;;8.96;57.04;94131.88;5060242;28;20413;-77
2021/12/26 00:17:31;;;;;;;28.60;21.47;;;;;;;8.71;56.76;94142.06;5060542;28;20182;-77
2021/12/26 00:19:57;;;;;;;30.10;21.40;;;;;;;8.76;57.28;94128.41;5058456;28;20406;-77
2021/12/26 00:22:22;;;;;;;27.07;21.20;;;;;;;8.83;57.41;94141.50;5039411;28;20223;-77
2021/12/26 00:24:48;;;;;;;26.27;19.03;;;;;;;9.30;55.81;94135.38;5063647;28;20197;-77
2021/12/26 00:27:15;;;;;;;33.23;21.50;;;;;;;8.61;58.18;94136.38;5062942;28;20241;-75
2021/12/26 00:29:40;;;;;;;25.80;19.23;;;;;;;8.64;57.54;94135.19;5044061;28;20225;-77
2021/12/26 00:32:06;;;;;;;28.80;21.93;;;;;;;8.49;57.95;94140.56;5060754;28;20504;-77
2021/12/26 00:34:33;;;;;;;30.90;21.23;;;;;;;8.69;57.25;94133.63;5061164;28;20183;-77
2021/12/26 00:36:58;;;;;;;27.03;21.10;;;;;;;8.93;57.43;94123.66;5055871;28;20468;-76
2021/12/26 00:39:24;;;;;;;22.53;17.90;;;;;;;8.76;56.98;94144.88;5066534;28;20437;-76
2021/12/26 00:41:49;;;;;;;25.80;19.40;;;;;;;8.59;57.88;94134.00;5055494;28;20178;-76
2021/12/26 00:44:15;;;;;;;21.60;16.60;;;;;;;8.87;57.59;94137.47;5060963;28;20178;-77
2021/12/26 00:46:40;;;;;;;25.60;17.67;;;;;;;8.71;57.34;94142.06;5040063;28;20182;-77
2021/12/26 00:49:06;;;;;;;23.83;18.67;;;;;;;8.57;57.44;94145.59;5053795;28;20203;-76
2021/12/26 00:51:32;;;;;;;32.20;21.40;;;;;;;8.58;57.43;94148.00;5045538;28;20181;-77
2021/12/26 00:53:57;;;;;;;21.77;17.83;;;;;;;8.64;57.65;94151.66;5058146;28;20420;-77
2021/12/26 00:56:23;;;;;;;26.47;17.03;;;;;;;9.08;56.94;94137.31;5052380;28;20640;-76
2021/12/26 00:58:49;;;;;;;20.83;17.07;;;;;;;8.99;56.72;94147.16;5056104;28;20232;-76
2021/12/26 01:01:15;;;;;;;20.37;16.90;;;;;;;8.94;56.43;94148.75;5041258;28;20203;-77
2021/12/26 01:03:42;;;;;;;19.07;15.90;;;;;;;9.15;56.08;94137.34;5054150;28;20187;-77
2021/12/26 01:06:08;;;;;;;19.90;15.23;;;;;;;9.14;56.05;94133.94;5047425;28;20453;-77
2021/12/26 01:08:38;;;;;;;21.70;15.20;;;;;;;8.97;57.08;94143.13;5029373;28;20426;-77
2021/12/26 01:11:19;;;;;;;25.73;16.10;;;;;;;8.53;57.98;94152.19;5047188;28;20414;-77
2021/12/26 01:13:47;;;;;;;19.50;16.57;;;;;;;8.88;56.90;94131.25;5047457;28;20425;-77
2021/12/26 01:16:14;;;;;;;21.80;17.40;;;;;;;8.96;56.44;94131.09;5052789;28;20426;-77
2021/12/26 01:18:43;;;;;;;19.97;16.30;;;;;;;8.80;56.97;94124.41;5054978;28;20547;-77
2021/12/26 01:21:19;;;;;;;22.20;17.70;;;;;;;8.87;57.31;94127.03;5063215;28;20421;-77
2021/12/26 01:23:48;;;;;;;23.00;16.80;;;;;;;8.75;56.88;94121.59;5056403;28;20436;-77
2021/12/26 01:26:14;;;;;;;24.63;18.30;;;;;;;8.50;58.14;94118.69;5063491;28;20449;-77
2021/12/26 01:28:40;;;;;;;24.87;18.97;;;;;;;8.83;57.47;94125.84;5042208;28;20481;-75
2021/12/26 01:31:05;;;;;;;26.80;19.07;;;;;;;8.50;58.14;94124.72;5056172;28;20168;-77
2021/12/26 01:33:31;;;;;;;22.20;17.73;;;;;;;8.58;57.11;94106.28;5063810;28;20432;-76
2021/12/26 01:35:56;;;;;;;19.83;16.20;;;;;;;8.61;57.84;94115.50;5045832;28;20166;-76
2021/12/26 01:38:22;;;;;;;25.00;16.67;;;;;;;8.35;58.59;94100.56;5048174;28;20178;-77
2021/12/26 01:40:52;;;;;;;22.23;17.30;;;;;;;8.23;58.86;94104.69;5066313;28;20948;-77
2021/12/26 01:43:20;;;;;;;22.60;17.33;;;;;;;8.44;58.41;94109.03;5065409;28;20178;-76
2021/12/26 01:45:47;;;;;;;22.93;17.23;;;;;;;8.35;58.36;94117.00;5048448;28;20451;-76
2021/12/26 01:48:13;;;;;;;20.53;17.10;;;;;;;8.36;59.25;94102.94;5066490;28;20425;-78
2021/12/26 01:50:40;;;;;;;25.37;17.90;;;;;;;8.44;58.93;94099.41;5066327;28;20404;-77
2021/12/26 01:53:06;;;;;;;19.10;17.07;;;;;;;7.76;60.58;94115.66;5066076;28;20413;-76
2021/12/26 01:55:42;;;;;;;21.93;16.27;;;;;;;8.34;59.27;94097.13;5048229;28;20416;-77
2021/12/26 01:58:11;;;;;;;20.67;15.90;;;;;;;7.99;59.97;94112.00;5046965;28;20447;-76
2021/12/26 02:00:39;;;;;;;30.13;18.93;;;;;;;8.24;58.63;94098.50;5047087;28;20417;-77
2021/12/26 02:03:06;;;;;;;25.13;17.90;;;;;;;8.30;58.68;94101.13;5046129;28;20452;-78
2021/12/26 02:05:32;;;;;;;20.40;15.33;;;;;;;8.77;58.09;94102.13;5027833;28;20454;-76
2021/12/26 02:07:57;;;;;;;30.73;17.53;;;;;;;7.65;60.29;94110.16;5045926;28;20457;-77
2021/12/26 02:10:23;;;;;;;18.33;10.40;;;;;;;7.80;60.61;94108.28;5049595;28;20228;-76
2021/12/26 02:12:48;;;;;;;22.07;16.93;;;;;;;8.04;60.09;94090.56;5065488;28;20170;-75
2021/12/26 02:15:14;;;;;;;25.10;18.00;;;;;;;7.87;60.27;94080.44;5065981;28;20307;-76
2021/12/26 02:17:39;;;;;;;19.07;14.60;;;;;;;8.29;59.12;94090.88;5064462;28;20197;-76
2021/12/26 02:20:16;;;;;;;21.03;16.60;;;;;;;8.11;59.59;94089.59;5064804;28;20251;-76
2021/12/26 02:22:46;;;;;;;19.37;15.97;;;;;;;8.21;58.86;94091.84;5065751;28;20204;-76
2021/12/26 02:25:27;;;;;;;22.43;15.63;;;;;;;8.00;59.91;94103.97;5047480;28;20460;-76
2021/12/26 02:27:53;;;;;;;21.53;16.97;;;;;;;8.21;58.99;94090.06;5047457;28;20518;-76
2021/12/26 02:30:18;;;;;;;18.87;15.60;;;;;;;8.11;59.37;94099.22;5065437;28;20461;-77
2021/12/26 02:32:47;;;;;;;20.83;16.63;;;;;;;8.07;59.15;94087.59;5065923;28;20179;-76
2021/12/26 02:35:12;;;;;;;24.67;17.13;;;;;;;8.39;58.07;94099.97;5047354;28;20174;-76
2021/12/26 02:37:38;;;;;;;19.90;15.60;;;;;;;8.57;58.04;94090.81;5047687;28;20417;-76
2021/12/26 02:40:05;;;;;;;19.33;15.77;;;;;;;8.00;59.42;94098.75;5065315;28;20257;-76
2021/12/26 02:42:35;;;;;;;14.80;10.00;;;;;;;8.07;59.70;94093.59;5065558;28;20201;-76
2021/12/26 02:45:01;;;;;;;22.40;15.27;;;;;;;8.09;58.94;94093.41;5047846;28;20528;-76
2021/12/26 02:47:37;;;;;;;23.33;15.90;;;;;;;8.04;59.22;94088.75;5047615;28;20429;-77
2021/12/26 02:50:09;;;;;;;23.63;15.13;;;;;;;8.21;58.78;94095.28;5064463;28;20460;-75
2021/12/26 02:52:35;;;;;;;21.07;15.20;;;;;;;8.05;60.00;94094.78;5080100;28;20496;-75
2021/12/26 02:55:01;;;;;;;18.47;15.37;;;;;;;8.02;59.77;94102.00;5065741;28;20899;-76
2021/12/26 02:57:27;;;;;;;17.57;15.63;;;;;;;8.04;59.87;94099.19;5065239;28;20422;-76
2021/12/26 02:59:53;;;;;;;23.10;14.10;;;;;;;8.52;58.32;94085.41;5064157;28;20636;-76
2021/12/26 03:02:18;;;;;;;19.20;11.87;;;;;;;8.17;58.49;94098.44;5065679;28;20429;-76
2021/12/26 03:04:44;;;;;;;18.53;14.97;;;;;;;7.94;59.96;94083.91;5064707;28;20194;-77
2021/12/26 03:07:09;;;;;;;11.83;7.67;;;;;;;7.82;60.21;94106.28;5065320;28;20518;-77
2021/12/26 03:09:45;;;;;;;19.53;15.40;;;;;;;7.90;60.43;94081.88;5065500;28;20155;-76
2021/12/26 03:12:11;;;;;;;12.83;11.40;;;;;;;7.68;60.82;94092.34;5047539;28;20181;-77
2021/12/26 03:14:38;;;;;;;17.20;12.70;;;;;;;7.94;60.28;94078.69;5045288;28;20409;-77
2021/12/26 03:17:04;;;;;;;19.70;13.70;;;;;;;7.98;59.51;94084.31;5045306;28;20468;-76
2021/12/26 03:19:36;;;;;;;15.13;13.23;;;;;;;8.34;59.17;94088.50;5043322;28;20427;-76
2021/12/26 03:22:04;;;;;;;16.33;12.63;;;;;;;8.46;58.73;94070.53;5045435;28;20422;-76
2021/12/26 03:24:30;;;;;;;18.37;12.00;;;;;;;8.38;58.38;94074.91;5045413;28;20461;-76
2021/12/26 03:27:04;;;;;;;15.20;12.93;;;;;;;8.21;58.56;94078.81;5027231;28;20422;-77
2021/12/26 03:29:30;;;;;;;17.40;14.10;;;;;;;8.40;58.99;94077.28;5044688;28;20462;-75
2021/12/26 03:31:55;;;;;;;10.23;9.07;;;;;;;8.34;58.79;94089.31;5037921;28;20453;-75
2021/12/26 03:34:21;;;;;;;18.27;14.40;;;;;;;8.23;58.59;94082.03;5085016;28;20165;-76
2021/12/26 03:36:51;;;;;;;18.30;14.07;;;;;;;8.54;58.36;94072.97;5067178;28;20545;-76
2021/12/26 03:39:16;;;;;;;15.77;14.10;;;;;;;7.99;59.05;94083.34;5085037;28;20193;-76
2021/12/26 03:41:42;;;;;;;19.23;14.60;;;;;;;7.93;59.29;94097.94;5067147;28;20465;-76
2021/12/26 03:44:07;;;;;;;16.43;14.40;;;;;;;8.08;59.98;94086.56;5046919;28;20179;-76
2021/12/26 03:46:33;;;;;;;13.73;12.23;;;;;;;8.56;58.41;94091.84;5064701;28;20195;-76
2021/12/26 03:49:03;;;;;;;17.07;15.20;;;;;;;8.05;59.63;94105.22;5064931;28;20217;-76
2021/12/26 03:51:29;;;;;;;15.33;12.97;;;;;;;8.24;58.49;94104.50;5046577;28;20216;-76
2021/12/26 03:53:55;;;;;;;19.00;15.60;;;;;;;8.19;58.75;94106.88;5046520;28;20429;-76
2021/12/26 03:56:20;;;;;;;15.83;14.13;;;;;;;8.43;57.99;94107.44;5046514;28;20606;-77
2021/12/26 03:58:46;;;;;;;23.43;14.80;;;;;;;7.83;60.19;94113.06;5046983;28;20209;-76
2021/12/26 04:01:12;;;;;;;23.93;15.97;;;;;;;8.23;58.58;94091.66;5047271;28;20174;-77
2021/12/26 04:03:37;;;;;;;9.47;6.60;;;;;;;8.06;59.03;94101.59;5068605;28;20230;-76
2021/12/26 04:06:03;;;;;;;20.97;17.73;;;;;;;8.07;59.49;94103.22;5050846;28;20202;-75
2021/12/26 04:08:29;;;;;;;17.40;13.33;;;;;;;7.62;60.83;94116.53;5049518;28;20266;-76
2021/12/26 04:10:55;;;;;;;18.50;13.97;;;;;;;8.34;58.51;94110.16;5048983;28;20532;-77
2021/12/26 04:13:20;;;;;;;20.73;14.50;;;;;;;8.26;58.74;94112.13;5067134;28;20178;-76
2021/12/26 04:15:46;;;;;;;19.30;13.90;;;;;;;8.32;58.53;94117.38;5066696;28;20170;-76
2021/12/26 04:18:12;;;;;;;15.63;12.97;;;;;;;8.12;59.37;94113.84;5068134;28;20424;-76
2021/12/26 04:20:37;;;;;;;18.07;15.10;;;;;;;8.10;58.68;94103.66;5067369;28;20173;-78
2021/12/26 04:23:04;;;;;;;19.13;15.00;;;;;;;8.39;58.04;94115.59;5057768;28;20440;-76
2021/12/26 04:25:30;;;;;;;18.60;15.00;;;;;;;8.36;58.79;94108.16;5063963;28;20195;-77
2021/12/26 04:27:56;;;;;;;13.83;8.30;;;;;;;8.45;58.16;94101.03;5049801;28;20427;-77
2021/12/26 04:30:22;;;;;;;17.07;12.97;;;;;;;7.84;60.63;94117.31;5031022;28;20472;-76
2021/12/26 04:32:48;;;;;;;18.17;13.90;;;;;;;8.31;58.56;94100.13;5048314;28;20422;-76
2021/12/26 04:35:15;;;;;;;15.37;13.83;;;;;;;8.56;59.14;94110.91;5030484;28;20421;-76
2021/12/26 04:37:41;;;;;;;21.50;14.17;;;;;;;8.25;59.05;94113.13;5020654;28;20184;-75
2021/12/26 04:40:13;;;;;;;19.70;14.00;;;;;;;7.96;60.43;94123.59;5011881;28;20455;-77
2021/12/26 04:42:40;;;;;;;18.90;13.97;;;;;;;7.98;60.16;94131.22;5010123;28;20176;-75
2021/12/26 04:45:09;;;;;;;18.40;14.67;;;;;;;8.33;59.02;94132.03;5028301;28;20472;-76
2021/12/26 04:47:35;;;;;;;19.20;13.63;;;;;;;8.37;59.57;94125.41;5032680;28;20794;-76
2021/12/26 04:50:02;;;;;;;17.30;14.73;;;;;;;8.37;58.69;94124.63;5042041;28;20434;-76
2021/12/26 04:52:28;;;;;;;19.90;16.20;;;;;;;8.43;58.20;94123.88;5027806;28;20502;-76
2021/12/26 04:54:53;;;;;;;22.57;14.30;;;;;;;8.42;58.46;94143.09;5010373;28;20487;-76
2021/12/26 04:57:19;;;;;;;22.97;15.50;;;;;;;8.34;59.42;94130.22;5028076;28;20206;-76
2021/12/26 04:59:44;;;;;;;23.20;16.43;;;;;;;8.76;58.05;94129.22;5009719;28;20164;-76
2021/12/26 05:02:10;;;;;;;20.63;16.00;;;;;;;8.60;58.86;94114.72;5028680;28;20179;-75
2021/12/26 05:04:36;;;;;;;21.37;16.90;;;;;;;8.38;58.80;94150.50;5029160;28;20271;-77
2021/12/26 05:07:01;;;;;;;28.17;17.60;;;;;;;8.44;59.25;94106.41;5029157;28;21017;-76
2021/12/26 05:09:27;;;;;;;23.33;16.77;;;;;;;7.94;59.95;94141.22;5047925;28;20254;-77
2021/12/26 05:11:53;;;;;;;22.80;17.93;;;;;;;8.35;59.23;94114.38;5050487;28;20205;-77
2021/12/26 05:14:19;;;;;;;26.07;16.87;;;;;;;8.24;59.29;94141.00;5066190;28;20170;-77
2021/12/26 05:16:44;;;;;;;23.23;16.07;;;;;;;8.20;59.92;94127.53;5066441;28;20429;-78
2021/12/26 05:19:10;;;;;;;18.63;15.47;;;;;;;8.88;57.64;94134.69;5049428;28;20204;-76
2021/12/26 05:21:35;;;;;;;19.67;16.87;;;;;;;8.27;59.42;94139.78;5067128;28;20300;-77
2021/12/26 05:24:01;;;;;;;20.10;15.63;;;;;;;8.80;58.24;94134.84;5066669;28;20182;-76
2021/12/26 05:26:26;;;;;;;21.50;15.63;;;;;;;8.64;58.71;94143.81;5040166;28;20523;-77
2021/12/26 05:28:52;;;;;;;20.30;17.23;;;;;;;8.32;59.79;94138.22;5052228;28;20253;-77
2021/12/26 05:31:17;;;;;;;26.37;19.70;;;;;;;8.10;60.73;94134.09;5066622;28;20166;-76
2021/12/26 05:33:43;;;;;;;23.23;16.67;;;;;;;8.79;58.08;94152.31;5067225;28;20183;-77
2021/12/26 05:36:08;;;;;;;28.87;18.23;;;;;;;8.91;58.36;94136.09;5049047;28;20312;-77
2021/12/26 05:38:34;;;;;;;22.93;17.67;;;;;;;8.66;58.29;94148.84;5066552;28;20201;-76
2021/12/26 05:40:59;;;;;;;20.40;15.90;;;;;;;9.18;58.18;94143.00;5066528;28;20174;-76
2021/12/26 05:43:25;;;;;;;22.77;17.40;;;;;;;9.28;57.18;94139.19;5048570;28;20194;-76
2021/12/26 05:45:50;;;;;;;23.27;16.70;;;;;;;8.79;58.87;94147.09;5066767;28;20194;-77
2021/12/26 05:48:16;;;;;;;27.60;16.53;;;;;;;8.61;60.43;94144.19;5066446;28;20182;-76
2021/12/26 05:50:41;;;;;;;17.83;15.30;;;;;;;8.50;61.63;94140.34;5066403;28;20224;-76
2021/12/26 05:53:07;;;;;;;20.23;16.37;;;;;;;8.87;60.95;94124.44;5054698;28;20650;-77
2021/12/26 05:55:32;;;;;;;22.33;17.47;;;;;;;8.72;61.45;94119.38;5040804;28;20174;-77
2021/12/26 05:57:58;;;;;;;11.73;10.07;;;;;;;8.43;62.40;94120.47;5048267;28;20175;-76
2021/12/26 06:00:23;;;;;;;24.27;18.17;;;;;;;8.55;62.67;94116.28;5066080;28;20668;-76
2021/12/26 06:02:50;;;;;;;19.30;16.57;;;;;;;8.39;62.95;94101.78;5046727;28;20180;-77
2021/12/26 06:05:18;;;;;;;17.80;14.33;;;;;;;8.48;64.18;94079.78;5050375;28;20213;-76
2021/12/26 06:07:44;;;;;;;16.30;11.93;;;;;;;7.84;65.55;94096.47;5047726;28;20425;-75
2021/12/26 06:10:10;;;;;;;16.60;12.83;;;;;;;8.15;65.63;94090.81;5052980;28;20448;-76
2021/12/26 06:12:35;;;;;;;13.97;11.77;;;;;;;8.04;65.08;94098.38;5054923;28;20253;-77
2021/12/26 06:15:02;;;;;;;16.37;11.57;;;;;;;8.20;65.13;94082.44;5065858;28;20423;-75
2021/12/26 06:17:28;;;;;;;15.90;13.23;;;;;;;8.26;64.11;94071.22;5065725;28;20486;-76
2021/12/26 06:19:54;;;;;;;17.73;13.97;;;;;;;8.34;64.33;94084.09;5062400;28;20421;-76
2021/12/26 06:22:19;;;;;;;18.53;11.77;;;;;;;8.23;64.11;94086.44;5032387;28;20175;-77
2021/12/26 06:24:45;;;;;;;16.60;12.13;;;;;;;8.63;63.34;94071.78;5040037;28;20183;-76
2021/12/26 06:27:10;;;;;;;16.47;13.03;;;;;;;8.87;62.20;94067.03;5046045;28;20633;-77
2021/12/26 06:29:36;;;;;;;10.50;8.40;;;;;;;8.51;63.38;94081.19;5027638;28;20226;-77
2021/12/26 06:32:01;;;;;;;15.57;13.40;;;;;;;8.23;64.69;94087.25;5045602;28;20179;-76
2021/12/26 06:34:27;;;;;;;16.47;13.53;;;;;;;8.43;63.99;94055.28;5028436;28;20176;-76
2021/12/26 06:36:52;;;;;;;11.30;8.20;;;;;;;8.38;63.35;94074.91;5028185;28;20175;-76
2021/12/26 06:39:18;;;;;;;21.83;13.87;;;;;;;8.49;64.18;94076.16;5028262;28;20171;-76
2021/12/26 06:41:44;;;;;;;15.60;12.03;;;;;;;8.91;63.10;94073.47;5028294;28;20209;-76
2021/12/26 06:44:10;;;;;;;16.53;13.13;;;;;;;8.63;63.12;94097.88;5056592;28;20413;-77
2021/12/26 06:46:36;;;;;;;15.17;12.50;;;;;;;8.92;61.58;94101.19;5065757;28;21054;-77
2021/12/26 06:49:04;;;;;;;12.53;11.07;;;;;;;8.71;62.34;94109.94;5066285;28;20285;-76
2021/12/26 06:51:30;;;;;;;15.03;13.20;;;;;;;8.97;61.42;94110.03;5048106;28;20433;-76
2021/12/26 06:53:56;;;;;;;16.83;13.20;;;;;;;9.34;61.35;94110.47;5047855;28;20429;-76
2021/12/26 06:56:21;;;;;;;11.60;9.93;;;;;;;8.84;61.85;94130.03;5047173;28;20476;-76
2021/12/26 06:58:47;;;;;;;14.40;12.50;;;;;;;9.11;62.70;94120.50;5065644;28;20189;-76
2021/12/26 07:01:12;;;;;;;20.57;15.60;;;;;;;9.15;62.25;94145.97;5065075;28;20182;-76
2021/12/26 07:03:38;;;;;;;16.80;14.20;;;;;;;9.12;61.78;94145.56;5055860;28;20189;-77
2021/12/26 07:06:04;;;;;;;20.90;15.33;;;;;;;9.12;62.23;94137.75;5038614;28;20263;-77
2021/12/26 07:08:29;;;;;;;12.53;9.80;;;;;;;8.63;64.02;94144.81;5045552;28;20170;-77
2021/12/26 07:10:56;;;;;;;21.27;16.30;;;;;;;8.67;64.31;94138.22;5054267;28;20258;-76
2021/12/26 07:13:22;;;;;;;24.60;17.30;;;;;;;8.57;64.54;94132.56;5064403;28;20186;-76
2021/12/26 07:15:48;;;;;;;17.07;14.60;;;;;;;9.11;62.74;94136.16;5038767;28;20446;-76
2021/12/26 07:18:16;;;;;;;16.97;15.27;;;;;;;9.39;62.24;94154.28;5059018;28;20430;-76
2021/12/26 07:20:42;;;;;;;17.53;13.97;;;;;;;9.23;62.15;94149.41;5042638;28;20420;-76
2021/12/26 07:23:08;;;;;;;22.07;16.50;;;;;;;9.07;63.54;94151.41;5034976;28;20437;-77
2021/12/26 07:25:39;;;;;;;28.63;18.37;;;;;;;9.35;62.96;94147.81;5061982;28;20198;-77
2021/12/26 07:28:05;;;;;;;18.33;15.03;;;;;;;9.44;61.77;94136.19;5045667;28;20443;-77
2021/12/26 07:30:32;;;;;;;25.03;17.57;;;;;;;9.01;63.43;94136.53;5027098;28;21291;-77
2021/12/26 07:32:58;;;;;;;21.50;16.97;;;;;;;9.09;62.59;94149.38;5045837;28;20440;-76
2021/12/26 07:35:24;;;;;;;22.70;15.93;;;;;;;9.45;62.74;94143.03;5045523;28;20183;-77
2021/12/26 07:37:52;;;;;;;22.83;11.90;;;;;;;9.08;62.52;94147.75;5029702;28;20194;-78
2021/12/26 07:40:19;;;;;;;16.70;14.00;;;;;;;9.22;62.86;94134.75;5048468;28;20513;-77
2021/12/26 07:42:45;;;;;;;18.93;15.60;;;;;;;9.63;62.08;94137.19;5032441;28;20507;-77
2021/12/26 07:45:11;;;;;;;20.43;15.63;;;;;;;9.78;60.98;94129.16;5030678;28;20468;-77
2021/12/26 07:47:38;;;;;;;24.77;14.43;;;;;;;9.25;62.53;94147.41;5046587;28;20430;-77
2021/12/26 07:50:05;;;;;;;20.10;15.07;;;;;;;9.49;62.18;94110.28;5030357;28;20468;-76
2021/12/26 07:52:35;;;;;;;7.33;6.27;;;;;;;8.60;63.86;94140.00;5032019;28;20436;-76
2021/12/26 07:55:01;;;;;;;16.47;14.73;;;;;;;8.92;64.89;94109.00;5050632;28;20877;-76
2021/12/26 07:57:27;;;;;;;21.37;15.17;;;;;;;8.72;65.71;94120.16;5050438;28;20428;-76
2021/12/26 07:59:52;;;;;;;19.13;14.17;;;;;;;9.04;64.57;94133.50;5050584;28;20417;-77
2021/12/26 08:02:20;;;;;;;14.97;13.43;;;;;;;8.86;65.34;94117.59;5050147;28;20208;-77
2021/12/26 08:04:47;;;;;;;20.57;15.10;;;;;;;9.38;64.55;94131.75;5051178;28;20206;-76
2021/12/26 08:07:13;;;;;;;18.30;13.83;;;;;;;9.82;62.95;94116.50;5046952;28;20433;-77
2021/12/26 08:09:38;;;;;;;9.83;8.37;;;;;;;9.42;63.79;94134.78;5030738;28;20431;-76
2021/12/26 08:12:05;;;;;;;17.83;14.00;;;;;;;9.49;63.97;94084.16;5049387;28;20489;-76
2021/12/26 08:14:30;;;;;;;9.57;7.77;;;;;;;9.01;65.99;94107.81;5040137;28;20188;-76
2021/12/26 08:16:55;;;;;;;14.20;11.00;;;;;;;9.19;65.38;94088.97;5040716;28;20829;-76
2021/12/26 08:19:21;;;;;;;15.23;12.67;;;;;;;9.67;63.34;94093.19;5068105;28;20198;-76
2021/12/26 08:21:51;;;;;;;13.70;11.20;;;;;;;9.90;62.64;94097.97;5068289;28;20165;-77
2021/12/26 08:24:17;;;;;;;14.53;11.47;;;;;;;10.18;62.68;94096.94;5082814;28;20677;-77
2021/12/26 08:26:43;;;;;;;15.87;13.20;;;;;;;10.30;61.57;94114.44;5070865;28;20539;-77
2021/12/26 08:29:09;;;;;;;17.83;12.00;;;;;;;10.29;61.76;94114.59;5073796;28;20532;-76
2021/12/26 08:31:34;;;;;;;15.00;12.23;;;;;;;10.83;60.50;94102.16;5066213;28;20436;-76
2021/12/26 08:34:00;;;;;;;13.00;11.07;;;;;;;10.55;60.38;94113.75;5067595;28;20241;-76
2021/12/26 08:36:25;;;;;;;12.83;9.90;;;;;;;10.37;61.43;94113.59;5049747;28;20209;-76
2021/12/26 08:38:51;;;;;;;14.53;11.13;;;;;;;11.15;59.12;94121.31;5050143;28;20210;-76
2021/12/26 08:41:16;;;;;;;13.83;12.30;;;;;;;10.97;59.68;94108.94;5058723;28;20187;-76
2021/12/26 08:43:43;;;;;;;13.53;11.43;;;;;;;11.18;58.72;94130.56;5032915;28;20194;-76
2021/12/26 08:46:10;;;;;;;13.33;11.47;;;;;;;10.73;60.73;94120.91;5058011;28;20238;-76
2021/12/26 08:48:36;;;;;;;12.87;11.53;;;;;;;10.92;59.85;94125.25;5028621;28;20422;-77
2021/12/26 08:51:02;;;;;;;12.50;10.63;;;;;;;11.26;58.49;94122.44;5030144;28;20509;-77
2021/12/26 08:53:28;;;;;;;15.07;11.60;;;;;;;10.96;60.19;94109.94;5029877;28;20179;-76
2021/12/26 08:55:57;;;;;;;17.20;13.60;;;;;;;11.22;60.03;94116.03;5029689;28;20417;-76
2021/12/26 08:58:23;;;;;;;14.27;12.70;;;;;;;11.27;59.13;94119.63;5044432;28;20433;-77
2021/12/26 09:00:48;;;;;;;15.60;12.40;;;;;;;11.27;59.86;94103.91;5049708;28;20414;-77
2021/12/26 09:03:17;;;;;;;16.93;11.70;;;;;;;11.60;58.79;94123.03;5066674;28;20206;-76
2021/12/26 09:13:27;;;;;;;12.40;10.93;;;;;;;11.85;57.87;94102.84;5066412;28;20830;-76
2021/12/26 09:20:21;;;;;;;;;;;;;;;;;;;;;
2021/12/26 09:33:19;;;;;;;13.27;11.50;;;;;;;12.15;56.55;94086.47;5077531;28;20467;-77
2021/12/26 09:43:35;;;;;;;14.60;12.23;;;;;;;12.12;56.86;94113.13;4936005;28;21289;-77
2021/12/26 10:28:42;;;;;;;7.97;7.17;;;;;;;12.73;53.48;94114.09;4984188;28;20518;-76
2021/12/26 10:31:35;;;;;;;9.23;7.70;;;;;;;12.96;52.58;94108.16;5011359;28;20465;-76
2021/12/26 10:35:02;;;;;;;10.27;8.73;;;;;;;12.72;52.87;94111.69;5004295;28;20437;-76
2021/12/26 10:40:38;;;;;;;14.63;8.80;;;;;;;12.99;51.25;94097.19;4940607;29;20424;-75
2021/12/26 10:46:41;;;;;;;9.77;7.07;;;;;;;12.77;51.27;94098.72;5036556;28;20500;-76
2021/12/26 10:52:33;;;;;;;9.70;7.27;;;;;;;13.05;51.45;94093.69;5078185;28;20475;-78
2021/12/26 10:55:49;;;;;;;;;;;;;;;;;;;;;
2021/12/26 11:02:39;;;;;;;9.60;7.00;;;;;;;13.98;48.41;94086.22;5020849;28;20480;-76
2021/12/26 11:09:16;;;;;;;10.83;8.83;;;;;;;14.87;46.22;94113.34;5018766;28;20410;-75
2021/12/26 11:12:12;;;;;;;8.50;7.00;;;;;;;14.27;47.91;94109.19;5003576;28;20835;-75
2021/12/26 11:14:58;;;;;;;7.60;6.90;;;;;;;14.82;46.45;94108.78;5008091;28;20903;-74
2021/12/26 11:18:00;;;;;;;7.60;6.43;;;;;;;15.09;46.81;94100.31;5007874;28;20431;-74
2021/12/26 11:20:48;;;;;;;11.13;8.20;;;;;;;15.11;46.33;94098.25;5012803;28;20450;-74
2021/12/26 11:23:19;;;;;;;9.53;7.10;;;;;;;15.24;44.52;94100.59;5014280;28;20449;-75
2021/12/26 11:26:09;;;;;;;9.63;8.40;;;;;;;14.91;45.56;94101.28;5008493;28;20478;-74
2021/12/26 11:28:40;;;;;;;12.13;8.10;;;;;;;14.93;46.00;94097.41;5025156;28;20434;-76
2021/12/26 11:31:15;;;;;;;11.30;7.00;;;;;;;15.34;44.95;94086.78;5010609;28;20423;-75
2021/12/26 11:33:41;;;;;;;9.00;8.13;;;;;;;15.57;44.81;94086.63;5067778;28;20434;-74
2021/12/26 11:36:09;;;;;;;7.47;6.70;;;;;;;15.29;44.99;94095.41;5066985;28;20458;-75
2021/12/26 11:38:36;;;;;;;8.40;6.63;;;;;;;15.32;45.40;94100.19;5083330;28;20509;-75
2021/12/26 11:41:05;;;;;;;8.00;7.20;;;;;;;15.31;45.40;94093.34;5086895;28;20430;-75
2021/12/26 11:43:49;;;;;;;8.30;7.50;;;;;;;14.70;46.24;94073.75;5069599;28;20410;-75
2021/12/26 11:46:17;;;;;;;8.20;6.90;;;;;;;14.91;46.59;94073.13;5083927;28;20456;-75
2021/12/26 11:49:21;;;;;;;8.07;7.10;;;;;;;13.63;49.01;94080.94;5084869;28;20424;-75
2021/12/26 11:52:20;;;;;;;9.60;7.27;;;;;;;14.91;47.00;94073.13;5065640;28;20497;-76
2021/12/26 11:55:04;;;;;;;8.97;7.97;;;;;;;15.25;45.97;94073.19;5079493;28;20431;-75
2021/12/26 11:57:39;;;;;;;9.03;8.13;;;;;;;15.64;45.83;94070.66;5065461;28;20507;-75
2021/12/26 12:00:13;;;;;;;8.37;7.30;;;;;;;15.95;44.16;94087.00;5067314;28;20411;-76
2021/12/26 12:02:55;;;;;;;9.33;7.73;;;;;;;15.78;45.18;94074.63;5067184;28;20432;-76
2021/12/26 12:05:40;;;;;;;10.50;8.60;;;;;;;15.77;44.91;94078.28;5078384;28;21000;-77
2021/12/26 12:08:35;;;;;;;;;;;;;;;;;;;;;
2021/12/26 12:11:37;;;;;;;;;;;;;;;;;;;;;
2021/12/26 12:14:16;;;;;;;12.30;9.50;;;;;;;15.06;45.77;94048.88;5071941;28;20530;-76
2021/12/26 12:16:44;;;;;;;14.07;10.07;;;;;;;15.60;45.18;94040.53;5068910;28;20412;-76
2021/12/26 12:19:13;;;;;;;13.80;10.27;;;;;;;15.94;43.67;94051.09;5064145;28;20467;-76
2021/12/26 12:21:50;;;;;;;12.17;9.10;;;;;;;15.97;44.64;94047.97;5059447;28;20424;-77
2021/12/26 12:24:26;;;;;;;11.27;10.00;;;;;;;16.14;43.84;94045.28;5056529;28;20433;-76
2021/12/26 12:26:56;;;;;;;11.20;9.50;;;;;;;16.09;44.03;94046.03;5062136;28;20447;-76
2021/12/26 12:29:21;;;;;;;11.10;9.97;;;;;;;16.02;44.06;94047.25;5061672;28;20440;-76
2021/12/26 12:31:47;;;;;;;12.33;11.03;;;;;;;16.06;44.28;94046.50;5058482;28;20433;-76
2021/12/26 12:34:14;;;;;;;11.93;10.73;;;;;;;15.76;45.11;94045.06;5079430;28;20246;-76
2021/12/26 12:36:43;;;;;;;14.10;10.37;;;;;;;15.72;44.77;94062.34;5062111;28;20409;-76
2021/12/26 12:39:20;;;;;;;12.87;11.57;;;;;;;15.59;44.96;94046.84;5063959;28;20444;-77
2021/12/26 12:41:51;;;;;;;13.80;10.43;;;;;;;15.42;45.41;94037.13;5064007;28;20423;-76
2021/12/26 12:44:34;;;;;;;15.40;11.00;;;;;;;15.40;46.08;94057.66;5062163;28;20428;-76
2021/12/26 12:47:07;;;;;;;13.63;11.83;;;;;;;15.12;46.42;94034.78;5086707;28;20502;-77
2021/12/26 12:49:44;;;;;;;10.70;8.80;;;;;;;15.16;46.47;94050.91;5065234;28;20446;-76
2021/12/26 12:52:39;;;;;;;14.93;11.70;;;;;;;14.77;48.08;94040.97;5067775;28;20561;-76
2021/12/26 12:55:26;;;;;;;14.10;10.53;;;;;;;14.97;47.21;94040.56;5068477;28;20417;-76
2021/12/26 12:57:54;;;;;;;13.40;9.90;;;;;;;14.69;47.09;94054.53;5043571;28;20534;-76
2021/12/26 13:00:23;;;;;;;17.40;11.63;;;;;;;15.08;46.83;94046.81;5056251;28;20439;-76
2021/12/26 13:02:49;;;;;;;12.43;11.13;;;;;;;14.93;46.93;94030.72;5065324;28;20412;-76
2021/12/26 13:05:26;;;;;;;15.17;12.20;;;;;;;14.97;47.28;94039.78;5061833;28;20507;-76
2021/12/26 13:08:04;;;;;;;13.60;10.97;;;;;;;15.25;46.42;94036.28;5064415;28;20486;-76